Time;durP1;ratioP1;P1;durP2;ratioP2;P2;SDS_P1;SDS_P2;PMS_P1;PMS_P2;Temp;Humidity;BMP_temperature;BMP_pressure;BME280_temperature;BME280_humidity;BME280_pressure;Samples;Min_cycle;Max_cycle;Signal;HPM_P1;HPM_P2
2021/05/28 00:02:41;;;;;;;3.20;1.70;;;7.40;99.90;;;7.49;100.00;95500.00;2405641;56;26657;-61
2021/05/28 00:05:27;;;;;;;2.20;2.00;;;7.20;99.90;;;7.24;100.00;95511.00;2184760;56;26709;-62
2021/05/28 00:08:14;;;;;;;3.17;2.10;;;6.90;99.90;;;7.06;100.00;95505.00;2184821;56;26907;-61
2021/05/28 00:11:00;;;;;;;4.97;1.97;;;6.90;99.90;;;7.04;100.00;95519.00;2278487;56;26605;-61
2021/05/28 00:13:47;;;;;;;3.57;1.77;;;6.90;99.90;;;7.02;100.00;95525.00;2182049;56;26664;-61
2021/05/28 00:16:33;;;;;;;2.00;1.77;;;7.00;99.90;;;7.16;100.00;95526.00;2399125;56;26781;-62
2021/05/28 00:19:19;;;;;;;6.97;1.90;;;7.20;99.90;;;7.45;100.00;95524.00;2213928;56;26745;-62
2021/05/28 00:22:06;;;;;;;3.73;1.97;;;7.10;99.90;;;7.20;100.00;95526.00;2181795;56;26811;-61
2021/05/28 00:24:53;;;;;;;2.23;1.83;;;7.00;99.90;;;7.16;100.00;95539.00;2218655;56;26200;-60
2021/05/28 00:27:39;;;;;;;2.53;1.90;;;7.20;99.90;;;7.59;100.00;95526.00;2180913;56;26724;-61
2021/05/28 00:30:26;;;;;;;4.03;1.90;;;7.30;99.90;;;7.47;100.00;95517.00;2226722;56;27027;-61
2021/05/28 00:33:12;;;;;;;4.50;2.10;;;7.40;99.90;;;7.73;100.00;95523.00;2181823;56;26611;-61
2021/05/28 00:35:59;;;;;;;3.10;1.93;;;7.40;99.90;;;7.74;100.00;95517.00;2405208;56;27423;-61
2021/05/28 00:38:46;;;;;;;2.30;2.00;;;7.40;99.90;;;7.59;100.00;95515.00;2186499;56;26163;-60
2021/05/28 00:41:32;;;;;;;4.83;2.20;;;7.30;99.90;;;7.63;100.00;95524.00;2187544;56;26727;-61
2021/05/28 00:44:24;;;;;;;4.70;2.10;;;7.30;99.90;;;7.51;100.00;95529.00;2222714;56;26870;-62
2021/05/28 00:47:10;;;;;;;3.30;1.87;;;7.30;99.90;;;7.64;100.00;95526.00;2186904;56;26142;-61
2021/05/28 00:49:57;;;;;;;2.13;1.87;;;7.50;99.90;;;7.96;100.00;95532.00;2218132;56;27285;-61
2021/05/28 00:52:44;;;;;;;3.77;1.80;;;7.60;99.90;;;7.81;100.00;95518.00;2185847;56;26229;-61
2021/05/28 00:55:31;;;;;;;2.23;1.80;;;7.60;99.90;;;7.90;100.00;95509.00;2403838;56;27328;-61
2021/05/28 00:58:18;;;;;;;3.00;1.90;;;7.40;99.90;;;7.64;100.00;95514.00;2186920;56;26652;-61
2021/05/28 01:01:04;;;;;;;1.87;1.73;;;7.60;99.90;;;8.02;100.00;95512.00;2272410;56;27288;-61
2021/05/28 01:03:50;;;;;;;5.97;1.90;;;7.60;99.90;;;7.80;100.00;95508.00;2186889;56;26937;-62
2021/05/28 01:06:37;;;;;;;2.87;2.20;;;7.40;99.90;;;7.61;100.00;95508.00;2181243;56;26794;-62
2021/05/28 01:09:23;;;;;;;5.30;2.07;;;7.50;99.90;;;7.81;100.00;95508.00;2277936;56;26726;-61
2021/05/28 01:12:11;;;;;;;2.77;1.90;;;7.40;99.90;;;7.57;100.00;95507.00;2400121;56;26832;-63
2021/05/28 01:14:58;;;;;;;3.67;2.00;;;7.30;99.90;;;7.47;100.00;95506.00;2181659;56;26960;-62
2021/05/28 01:17:45;;;;;;;2.70;2.27;;;7.30;99.90;;;7.54;100.00;95504.00;2276636;56;26935;-62
2021/05/28 01:20:31;;;;;;;3.40;2.17;;;7.20;99.90;;;7.45;100.00;95506.00;2391251;56;26781;-62
2021/05/28 01:23:18;;;;;;;5.17;2.00;;;7.20;99.90;;;7.47;100.00;95512.00;2177561;56;27226;-61
2021/05/28 01:26:06;;;;;;;4.13;1.80;;;7.30;99.90;;;7.48;100.00;95519.00;2264737;56;26802;-61
2021/05/28 01:28:53;;;;;;;2.33;2.10;;;7.30;99.90;;;7.48;100.00;95518.00;2180193;56;26689;-61
2021/05/28 01:31:39;;;;;;;5.83;1.97;;;7.30;99.90;;;7.50;100.00;95524.00;2268070;56;26873;-62
2021/05/28 01:34:25;;;;;;;2.33;1.90;;;7.30;99.90;;;7.64;100.00;95518.00;2266585;56;26899;-61
2021/05/28 01:37:12;;;;;;;2.77;2.10;;;7.60;99.90;;;7.87;100.00;95512.00;2183088;56;26699;-61
2021/05/28 01:39:58;;;;;;;4.17;2.00;;;7.60;99.90;;;7.95;100.00;95511.00;2180142;56;26934;-60
2021/05/28 01:42:45;;;;;;;6.93;2.10;;;7.60;99.90;;;8.02;100.00;95500.00;2397904;56;26228;-61
2021/05/28 01:45:31;;;;;;;4.03;1.87;;;7.50;99.90;;;7.70;100.00;95495.00;2398762;56;26879;-61
2021/05/28 01:48:17;;;;;;;2.93;2.10;;;7.50;99.90;;;7.76;100.00;95494.00;2398115;56;25851;-61
2021/05/28 01:51:06;;;;;;;2.30;1.90;;;7.50;99.90;;;7.79;100.00;95493.00;2179544;56;27282;-62
2021/05/28 01:53:53;;;;;;;3.80;2.23;;;7.60;99.90;;;7.97;100.00;95486.00;2398857;56;25877;-62
2021/05/28 01:56:40;;;;;;;3.70;1.90;;;7.80;99.90;;;8.17;100.00;95483.00;2226141;56;26197;-61
2021/05/28 01:59:27;;;;;;;2.73;1.77;;;7.90;99.90;;;8.11;100.00;95483.00;2201805;56;26119;-61
2021/05/28 02:02:14;;;;;;;2.10;1.70;;;7.80;99.90;;;8.11;100.00;95483.00;2393455;56;26926;-61
2021/05/28 02:05:00;;;;;;;3.03;1.93;;;7.80;99.90;;;8.10;100.00;95487.00;2392882;56;27080;-62
2021/05/28 02:07:46;;;;;;;3.27;1.80;;;7.60;99.90;;;7.74;100.00;95482.00;2230036;56;26637;-62
2021/05/28 02:10:34;;;;;;;4.83;2.10;;;7.50;99.90;;;7.64;100.00;95489.00;2392231;56;27428;-61
2021/05/28 02:13:20;;;;;;;4.37;2.00;;;7.40;99.90;;;7.55;100.00;95499.00;2322225;56;26777;-61
2021/05/28 02:16:08;;;;;;;4.70;2.00;;;7.30;99.90;;;7.53;100.00;95503.00;2176468;56;26589;-61
2021/05/28 02:18:55;;;;;;;3.27;2.03;;;7.30;99.90;;;7.48;100.00;95502.00;2175045;56;26729;-62
2021/05/28 02:21:41;;;;;;;2.33;1.80;;;7.40;99.90;;;7.66;100.00;95501.00;2177640;56;26900;-61
2021/05/28 02:24:28;;;;;;;2.20;2.00;;;7.60;99.90;;;8.03;100.00;95494.00;2395179;56;26746;-61
2021/05/28 02:27:14;;;;;;;3.10;2.23;;;7.70;99.90;;;7.97;100.00;95484.00;2324347;56;26184;-61
2021/05/28 02:30:00;;;;;;;3.00;2.20;;;7.80;99.90;;;8.05;100.00;95480.00;2177480;56;26825;-61
2021/05/28 02:32:47;;;;;;;2.73;1.80;;;7.70;99.90;;;7.94;100.00;95479.00;2177446;56;26730;-61
2021/05/28 02:35:33;;;;;;;3.63;1.77;;;7.80;99.90;;;8.07;100.00;95471.00;2177790;56;26714;-61
2021/05/28 02:38:20;;;;;;;1.90;1.70;;;7.80;99.90;;;8.07;100.00;95464.00;2260631;56;26720;-61
2021/05/28 02:41:06;;;;;;;3.40;1.97;;;7.80;99.90;;;8.05;100.00;95460.00;2324924;56;26799;-61
2021/05/28 02:43:53;;;;;;;2.30;1.70;;;7.70;99.90;;;7.90;100.00;95473.00;2401681;56;26843;-61
2021/05/28 02:46:39;;;;;;;3.93;2.10;;;7.80;99.90;;;8.04;100.00;95479.00;2186613;56;26654;-62
2021/05/28 02:49:26;;;;;;;2.47;1.83;;;7.80;99.90;;;8.13;100.00;95476.00;2186696;56;26690;-61
2021/05/28 02:52:12;;;;;;;3.70;1.83;;;7.90;99.90;;;8.12;100.00;95474.00;2187785;56;26715;-61
2021/05/28 02:54:58;;;;;;;2.80;1.80;;;7.80;99.90;;;8.12;100.00;95474.00;2225468;56;27306;-61
2021/05/28 02:57:44;;;;;;;3.47;2.20;;;7.70;99.90;;;7.88;100.00;95471.00;2185825;56;26994;-61
2021/05/28 03:00:31;;;;;;;2.17;1.97;;;7.60;99.90;;;7.86;100.00;95486.00;2187669;56;27157;-61
2021/05/28 03:03:17;;;;;;;2.57;2.00;;;7.60;99.90;;;7.87;100.00;95499.00;2396865;56;26679;-62
2021/05/28 03:06:04;;;;;;;2.10;1.87;;;7.70;99.90;;;7.92;100.00;95496.00;2373686;56;26878;-62
2021/05/28 03:08:50;;;;;;;2.67;1.90;;;7.70;99.90;;;7.96;100.00;95495.00;2404413;56;27136;-61
2021/05/28 03:11:37;;;;;;;2.07;1.73;;;7.80;99.90;;;8.27;100.00;95491.00;2404846;56;27165;-61
2021/05/28 03:14:24;;;;;;;2.73;1.90;;;8.10;99.90;;;8.41;100.00;95487.00;2268110;56;26759;-61
2021/05/28 03:17:11;;;;;;;2.40;2.00;;;7.90;99.90;;;8.17;100.00;95485.00;2185862;56;26704;-61
2021/05/28 03:19:57;;;;;;;3.63;1.80;;;8.00;99.90;;;8.35;100.00;95475.00;2398229;56;27268;-61
2021/05/28 03:22:44;;;;;;;3.93;2.00;;;7.90;99.90;;;8.07;100.00;95481.00;2186150;56;27447;-61
2021/05/28 03:25:30;;;;;;;2.40;1.80;;;7.70;99.90;;;7.89;100.00;95486.00;2278067;56;27180;-61
2021/05/28 03:28:16;;;;;;;1.70;1.60;;;7.90;99.90;;;8.30;100.00;95488.00;2186940;56;27198;-60
2021/05/28 03:31:03;;;;;;;2.40;1.70;;;7.90;99.90;;;8.15;100.00;95486.00;2372661;56;26711;-60
2021/05/28 03:33:49;;;;;;;2.00;1.80;;;7.80;99.90;;;8.04;100.00;95479.00;2188369;56;26793;-61
2021/05/28 03:36:36;;;;;;;2.30;1.60;;;7.80;99.90;;;8.01;100.00;95487.00;2186010;56;26805;-61
2021/05/28 03:39:22;;;;;;;2.40;1.77;;;7.70;99.90;;;7.90;100.00;95499.00;2187499;56;26915;-62
2021/05/28 03:42:09;;;;;;;2.47;1.80;;;7.70;99.90;;;7.87;100.00;95497.00;2200506;56;26143;-62
2021/05/28 03:44:55;;;;;;;2.73;1.90;;;7.50;99.90;;;7.69;100.00;95492.00;2273701;56;26739;-61
2021/05/28 03:47:41;;;;;;;2.10;1.73;;;7.30;99.90;;;7.47;100.00;95506.00;2372485;56;26798;-61
2021/05/28 03:50:28;;;;;;;2.63;2.00;;;7.30;99.90;;;7.66;100.00;95512.00;2186927;56;26171;-61
2021/05/28 03:53:14;;;;;;;2.00;1.80;;;7.50;99.90;;;7.74;100.00;95498.00;2187054;56;26586;-61
2021/05/28 03:56:01;;;;;;;1.90;1.70;;;7.50;99.90;;;7.75;100.00;95506.00;2186894;56;26747;-61
2021/05/28 03:58:47;;;;;;;3.30;1.70;;;7.50;99.90;;;7.76;100.00;95499.00;2188531;56;26228;-61
2021/05/28 04:01:33;;;;;;;2.17;1.67;;;7.40;99.90;;;7.58;100.00;95500.00;2187681;56;26594;-62
2021/05/28 04:04:20;;;;;;;2.40;2.10;;;7.40;99.90;;;7.69;100.00;95496.00;2185516;57;25688;-62
2021/05/28 04:07:06;;;;;;;2.00;1.73;;;7.40;99.90;;;7.77;100.00;95499.00;2187757;56;26275;-61
2021/05/28 04:09:53;;;;;;;2.00;1.80;;;7.50;99.90;;;7.74;100.00;95495.00;2188673;56;26761;-61
2021/05/28 04:12:39;;;;;;;3.17;2.10;;;7.50;99.90;;;7.90;100.00;95499.00;2187361;56;26830;-61
2021/05/28 04:15:26;;;;;;;2.47;1.90;;;7.40;99.90;;;7.74;100.00;95494.00;2186337;56;26903;-61
2021/05/28 04:18:12;;;;;;;1.97;1.70;;;7.50;99.90;;;7.89;100.00;95497.00;2309079;56;26752;-62
2021/05/28 04:20:58;;;;;;;1.80;1.67;;;7.60;99.90;;;7.89;100.00;95490.00;2187414;56;26722;-62
2021/05/28 04:23:45;;;;;;;2.30;1.83;;;7.60;99.90;;;7.95;100.00;95493.00;2187538;56;26924;-62
2021/05/28 04:26:31;;;;;;;3.50;1.73;;;7.60;99.90;;;7.99;100.00;95500.00;2216846;56;27315;-62
2021/05/28 04:29:19;;;;;;;2.97;1.70;;;7.60;99.90;;;8.06;100.00;95491.00;2189300;56;26755;-62
2021/05/28 04:32:06;;;;;;;2.10;1.80;;;7.60;99.90;;;8.01;100.00;95501.00;2213916;56;26750;-62
2021/05/28 04:34:53;;;;;;;2.73;1.57;;;7.60;99.90;;;8.00;100.00;95491.00;2368431;56;26897;-62
2021/05/28 04:37:39;;;;;;;1.90;1.50;;;7.80;99.90;;;8.33;100.00;95498.00;2306164;56;26235;-61
2021/05/28 04:40:28;;;;;;;4.13;1.80;;;7.90;99.90;;;8.36;100.00;95496.00;2189277;56;26767;-62
2021/05/28 04:43:14;;;;;;;3.50;2.13;;;7.70;99.90;;;8.06;100.00;95496.00;2397980;56;26746;-61
2021/05/28 04:46:00;;;;;;;4.07;2.03;;;7.80;99.90;;;8.17;100.00;95504.00;2181425;56;30759;-61
2021/05/28 04:48:47;;;;;;;2.40;1.80;;;7.70;99.90;;;8.00;100.00;95494.00;2180131;56;26724;-61
2021/05/28 04:51:33;;;;;;;2.30;1.90;;;7.50;99.90;;;7.86;100.00;95506.00;2398381;56;26674;-61
2021/05/28 04:54:19;;;;;;;1.93;1.77;;;7.40;99.90;;;7.88;100.00;95511.00;2183867;56;26661;-62
2021/05/28 04:57:06;;;;;;;2.00;1.80;;;7.60;99.90;;;8.68;100.00;95515.00;2404886;56;26725;-61
2021/05/28 04:59:53;;;;;;;2.73;1.83;;;8.20;99.90;;;10.87;100.00;95494.00;2278825;56;26590;-61
2021/05/28 05:02:39;;;;;;;2.00;1.70;;;9.30;99.90;;;13.93;100.00;95477.00;2186455;56;26800;-60
2021/05/28 05:05:26;;;;;;;1.80;1.40;;;10.70;99.90;;;16.19;100.00;95463.00;2188301;56;26630;-61
2021/05/28 05:08:13;;;;;;;2.10;1.33;;;12.00;99.90;;;17.78;100.00;95471.00;2186259;56;27663;-61
2021/05/28 05:10:59;;;;;;;1.10;1.00;;;12.90;99.90;;;16.23;100.00;95469.00;2404839;56;26651;-60
2021/05/28 05:13:46;;;;;;;1.83;1.10;;;13.30;99.90;;;15.88;100.00;95478.00;2405232;56;26746;-61
2021/05/28 05:16:34;;;;;;;1.20;1.10;;;12.90;99.90;;;16.89;100.00;95470.00;2405485;56;26611;-60
2021/05/28 05:19:20;;;;;;;2.23;1.10;;;13.40;99.90;;;18.20;100.00;95459.00;2187891;56;26761;-60
2021/05/28 05:22:06;;;;;;;2.27;1.20;;;14.10;99.90;;;17.55;100.00;95467.00;2405280;56;26672;-61
2021/05/28 05:24:52;;;;;;;4.43;1.30;;;13.80;99.90;;;17.94;100.00;95464.00;2188431;56;27275;-61
2021/05/28 05:27:39;;;;;;;1.33;1.20;;;14.80;99.90;;;19.93;88.97;95467.00;2187756;56;26737;-60
2021/05/28 05:30:26;;;;;;;1.50;1.17;;;15.20;99.90;;;18.44;92.75;95469.00;2236171;56;26778;-61
2021/05/28 05:33:12;;;;;;;2.23;1.30;;;14.70;99.90;;;19.01;90.75;95470.00;2173339;56;26924;-61
2021/05/28 05:35:59;;;;;;;3.20;1.12;;;15.80;99.90;;;20.96;78.17;95467.00;2232201;56;26713;-61
2021/05/28 05:38:45;;;;;;;1.30;1.20;;;17.20;99.90;;;21.57;69.33;95465.00;2232765;56;26730;-63
2021/05/28 05:41:31;;;;;;;2.08;1.33;;;17.00;99.90;;;20.90;72.14;95458.00;2217026;56;26805;-61
2021/05/28 05:44:17;;;;;;;2.47;1.42;;;15.00;99.90;;;20.02;73.56;95458.00;2188126;56;26192;-61
2021/05/28 05:47:04;;;;;;;2.50;1.40;;;14.70;99.90;;;21.06;69.53;95452.00;2187992;56;26127;-61
2021/05/28 05:49:50;;;;;;;1.40;1.10;;;14.20;99.90;;;20.06;74.84;95467.00;2180713;56;26163;-62
2021/05/28 05:52:37;;;;;;;1.83;1.47;;;13.90;99.90;;;20.12;79.08;95463.00;2187100;56;26881;-60
2021/05/28 05:55:23;;;;;;;2.03;1.42;;;13.60;99.90;;;19.26;85.48;95463.00;2406467;56;26725;-61
2021/05/28 05:58:09;;;;;;;2.67;1.30;;;15.30;99.90;;;21.38;68.96;95460.00;2188362;56;26643;-62
2021/05/28 06:00:55;;;;;;;2.50;1.10;;;15.70;99.90;;;21.54;67.42;95462.00;2188546;56;26632;-61
2021/05/28 06:03:42;;;;;;;3.85;1.30;;;15.50;99.90;;;21.07;65.72;95459.00;2190078;56;26733;-61
2021/05/28 06:06:28;;;;;;;2.05;1.25;;;16.30;99.90;;;21.96;65.30;95460.00;2353795;56;26766;-61
2021/05/28 06:09:14;;;;;;;1.70;1.45;;;16.60;99.90;;;21.66;61.98;95456.00;2191377;56;27124;-62
2021/05/28 06:12:01;;;;;;;1.23;1.10;;;15.80;99.90;;;21.02;66.12;95454.00;2186779;56;26728;-61
2021/05/28 06:14:47;;;;;;;1.62;1.45;;;17.00;99.90;;;22.11;57.13;95453.00;2188226;56;26766;-61
2021/05/28 06:17:34;;;;;;;1.92;1.20;;;17.20;99.90;;;23.01;55.13;95453.00;2175482;56;27110;-61
2021/05/28 06:20:20;;;;;;;1.40;1.10;;;17.20;99.90;;;23.16;56.44;95446.00;2392808;56;26601;-61
2021/05/28 06:23:06;;;;;;;1.30;1.08;;;16.80;99.90;;;23.05;56.21;95451.00;2221085;56;26895;-61
2021/05/28 06:25:53;;;;;;;2.75;1.33;;;17.10;99.90;;;22.67;54.07;95445.00;2182698;56;26625;-61
2021/05/28 06:28:40;;;;;;;1.20;0.90;;;18.60;99.90;;;23.96;49.99;95449.00;2232651;56;26945;-61
2021/05/28 06:31:26;;;;;;;1.45;1.02;;;17.50;99.90;;;22.29;47.61;95445.00;2207416;56;26839;-61
2021/05/28 06:34:12;;;;;;;1.20;1.02;;;17.50;99.90;;;21.69;49.33;95444.00;2184974;56;27192;-62
2021/05/28 06:37:00;;;;;;;1.87;1.10;;;18.50;99.90;;;22.54;47.46;95448.00;2174017;56;26729;-63
2021/05/28 06:39:46;;;;;;;1.15;1.05;;;17.70;99.90;;;22.10;49.96;95446.00;2392540;56;26122;-61
2021/05/28 06:42:33;;;;;;;2.15;1.10;;;17.30;99.90;;;22.29;49.55;95448.00;2305296;56;27311;-61
2021/05/28 06:45:19;;;;;;;1.62;1.17;;;17.30;99.90;;;22.09;53.54;95441.00;2243329;56;26939;-61
2021/05/28 06:48:08;;;;;;;2.28;1.12;;;17.30;99.90;;;22.20;48.99;95438.00;2182418;56;26748;-61
2021/05/28 06:50:55;;;;;;;4.18;1.25;;;18.30;99.90;;;24.93;44.61;95441.00;2393132;56;27215;-61
2021/05/28 06:53:41;;;;;;;2.03;1.30;;;17.90;99.90;;;22.93;46.88;95445.00;2186645;56;26670;-61
2021/05/28 06:56:27;;;;;;;3.00;1.20;;;17.90;99.90;;;23.99;48.95;95457.00;2186754;56;26746;-61
2021/05/28 06:59:14;;;;;;;2.17;1.12;;;17.70;99.90;;;23.39;46.25;95459.00;2398940;56;26722;-61
2021/05/28 07:02:01;;;;;;;2.85;1.70;;;18.30;99.90;;;22.47;46.72;95460.00;2176120;56;26959;-61
2021/05/28 07:04:47;;;;;;;1.60;1.27;;;16.40;99.90;;;19.99;52.10;95468.00;2399806;56;26691;-61
2021/05/28 07:07:34;;;;;;;2.10;1.37;;;18.80;99.90;;;23.39;46.08;95464.00;2407078;56;26645;-61
2021/05/28 07:10:20;;;;;;;4.80;1.40;;;19.80;99.90;;;23.90;43.10;95460.00;2402842;56;26850;-61
2021/05/28 07:13:07;;;;;;;2.55;1.45;;;20.60;99.90;;;24.87;42.51;95455.00;2176161;56;26688;-61
2021/05/28 07:15:53;;;;;;;1.75;1.40;;;21.00;99.90;;;25.44;41.05;95456.00;2245606;56;26707;-61
2021/05/28 07:18:39;;;;;;;1.58;1.35;;;21.90;99.90;;;25.78;40.51;95453.00;2221783;56;27068;-61
2021/05/28 07:21:26;;;;;;;1.48;1.27;;;20.40;99.90;;;24.10;40.96;95460.00;2249489;56;26933;-62
2021/05/28 07:24:13;;;;;;;2.60;1.48;;;19.50;99.90;;;25.48;42.54;95457.00;2176046;56;27134;-61
2021/05/28 07:26:59;;;;;;;1.45;1.20;;;21.60;99.90;;;26.16;38.04;95451.00;2397463;56;26839;-61
2021/05/28 07:29:46;;;;;;;1.60;1.30;;;19.60;99.90;;;24.27;45.70;95452.00;2198894;56;26845;-62
2021/05/28 07:32:32;;;;;;;3.40;1.23;;;21.10;99.90;;;24.75;42.07;95461.00;2407124;56;26875;-62
2021/05/28 07:35:20;;;;;;;2.90;1.40;;;19.50;99.90;;;24.01;48.67;95462.00;2407204;56;26131;-61
2021/05/28 07:38:06;;;;;;;2.83;1.70;;;19.00;99.90;;;24.58;47.98;95457.00;2406567;56;27156;-63
2021/05/28 07:40:52;;;;;;;2.75;1.70;;;17.70;99.90;;;22.33;51.65;95459.00;2185877;56;26921;-62
2021/05/28 07:43:39;;;;;;;2.00;1.50;;;17.10;99.90;;;20.33;68.96;95460.00;2186326;56;26758;-63
2021/05/28 07:46:25;;;;;;;3.10;1.60;;;18.30;99.90;;;22.22;56.19;95455.00;2184669;56;26255;-62
2021/05/28 07:49:12;;;;;;;3.97;1.60;;;18.60;99.90;;;23.17;50.35;95458.00;2281105;56;26935;-62
2021/05/28 07:51:58;;;;;;;4.05;1.58;;;18.40;99.90;;;23.43;52.62;95452.00;2185878;56;26928;-63
2021/05/28 07:54:45;;;;;;;3.40;1.60;;;18.40;99.90;;;23.39;54.30;95453.00;2186337;56;27329;-63
2021/05/28 07:57:31;;;;;;;2.67;1.60;;;19.80;99.90;;;25.13;42.62;95451.00;2181035;56;26717;-62
2021/05/28 08:00:19;;;;;;;1.92;1.52;;;20.00;99.90;;;25.44;43.94;95447.00;2179536;56;27091;-62
2021/05/28 08:03:05;;;;;;;1.92;1.40;;;19.80;99.90;;;24.55;44.18;95450.00;2403860;56;26733;-63
2021/05/28 08:05:52;;;;;;;3.75;1.65;;;22.40;99.90;;;27.29;40.96;95449.00;2184815;56;26658;-62
2021/05/28 08:08:38;;;;;;;3.47;1.50;;;20.50;99.90;;;24.71;41.57;95449.00;2404683;56;26606;-61
2021/05/28 08:11:25;;;;;;;2.78;1.50;;;18.70;99.90;;;22.39;47.06;95455.00;2260902;56;26659;-61
2021/05/28 08:14:11;;;;;;;3.33;1.83;;;18.90;99.90;;;23.49;44.63;95447.00;2329678;56;26852;-62
2021/05/28 08:16:57;;;;;;;1.30;1.20;;;19.70;99.90;;;25.12;42.67;95445.00;2405878;56;26998;-62
2021/05/28 08:19:44;;;;;;;2.08;1.58;;;20.50;99.90;;;25.72;39.02;95457.00;2330784;56;26804;-62
2021/05/28 08:22:30;;;;;;;2.58;1.60;;;19.30;99.90;;;22.31;43.97;95454.00;2186652;56;26635;-63
2021/05/28 08:25:17;;;;;;;3.15;1.60;;;20.60;99.90;;;23.65;41.15;95453.00;2405722;56;26707;-62
2021/05/28 08:28:04;;;;;;;2.50;1.50;;;20.80;99.90;;;24.24;41.38;95454.00;2187134;56;26140;-62
2021/05/28 08:30:50;;;;;;;2.00;1.30;;;20.90;99.90;;;23.84;39.77;95456.00;2186366;56;26675;-62
2021/05/28 08:33:38;;;;;;;2.60;1.50;;;19.00;99.90;;;19.98;49.28;95453.00;2396063;56;27271;-62
2021/05/28 08:36:24;;;;;;;1.75;1.15;;;17.40;99.90;;;18.78;57.00;95447.00;2393689;56;27034;-62
2021/05/28 08:39:11;;;;;;;2.35;1.30;;;17.40;99.90;;;19.77;68.16;95452.00;2173458;56;26763;-62
2021/05/28 08:41:58;;;;;;;1.30;1.20;;;18.10;99.90;;;21.79;54.85;95444.00;2178080;56;26784;-62
2021/05/28 08:44:45;;;;;;;2.85;1.30;;;18.70;99.90;;;22.75;48.54;95449.00;2176151;56;26959;-62
2021/05/28 08:47:31;;;;;;;1.85;1.37;;;19.20;99.90;;;23.62;50.03;95447.00;2214257;56;27118;-62
2021/05/28 08:50:17;;;;;;;1.65;1.20;;;19.00;99.90;;;23.14;49.26;95434.00;2181215;56;26783;-62
2021/05/28 08:53:05;;;;;;;3.20;1.50;;;20.10;99.90;;;24.63;40.17;95435.00;2186752;56;26654;-62
2021/05/28 08:55:52;;;;;;;1.62;1.30;;;22.80;99.90;;;27.19;36.60;95431.00;2186111;56;27144;-62
2021/05/28 08:58:39;;;;;;;2.25;1.60;;;21.30;99.90;;;25.27;39.09;95436.00;2185713;56;26685;-62
2021/05/28 09:01:25;;;;;;;2.55;1.58;;;20.00;99.90;;;23.55;41.28;95436.00;2185980;56;26836;-62
2021/05/28 09:04:13;;;;;;;2.70;1.20;;;20.30;99.90;;;22.61;42.86;95435.00;2186754;56;26700;-62
2021/05/28 09:07:00;;;;;;;2.22;1.30;;;20.00;99.90;;;22.56;47.68;95438.00;2187236;56;26753;-62
2021/05/28 09:09:46;;;;;;;2.00;1.20;;;19.60;99.90;;;21.94;52.68;95441.00;2184288;56;26727;-62
2021/05/28 09:12:33;;;;;;;2.12;1.23;;;19.50;99.90;;;22.60;68.14;95433.00;2404563;56;26680;-62
2021/05/28 09:15:20;;;;;;;1.08;1.00;;;18.90;99.90;;;21.85;56.88;95437.00;2186735;56;26868;-62
2021/05/28 09:18:07;;;;;;;4.22;1.30;;;19.50;99.90;;;22.95;48.66;95436.00;2232677;56;26721;-62
2021/05/28 09:20:58;;;;;;;3.08;1.50;;;18.00;99.90;;;20.02;58.47;95450.00;2343218;56;26270;-61
2021/05/28 09:23:45;;;;;;;3.00;1.50;;;18.50;99.90;;;21.64;62.58;95445.00;2275453;56;26633;-62
2021/05/28 09:26:34;;;;;;;1.92;1.40;;;19.70;99.90;;;23.14;47.92;95447.00;2302989;56;26983;-62
2021/05/28 09:29:20;;;;;;;3.42;1.23;;;20.20;99.90;;;23.51;43.90;95446.00;2233186;56;26188;-62
2021/05/28 09:32:23;;;;;;;2.12;1.30;;;21.20;99.90;;;24.47;45.37;95448.00;2187168;56;26735;-62
2021/05/28 09:35:14;;;;;;;1.65;1.33;;;20.60;99.90;;;23.40;46.79;95444.00;2309793;56;26233;-62
2021/05/28 09:38:00;;;;;;;1.48;1.33;;;20.30;99.90;;;23.62;44.80;95442.00;2185348;56;27877;-62
2021/05/28 09:40:47;;;;;;;1.65;1.42;;;20.60;99.90;;;23.81;53.29;95441.00;2186523;56;26862;-62
2021/05/28 09:43:33;;;;;;;2.12;1.30;;;19.60;99.90;;;22.31;52.01;95437.00;2236951;56;27392;-62
2021/05/28 09:46:19;;;;;;;3.53;1.15;;;18.70;99.90;;;20.97;57.49;95442.00;2265500;56;26700;-63
2021/05/28 09:49:12;;;;;;;1.30;1.20;;;19.50;99.90;;;22.57;60.64;95436.00;2404683;56;27533;-62
2021/05/28 09:52:09;;;;;;;1.58;1.30;;;20.60;99.90;;;23.68;60.73;95439.00;2399726;56;26600;-62
2021/05/28 09:54:59;;;;;;;2.15;1.33;;;21.10;99.90;;;24.11;50.66;95440.00;2402906;56;27365;-62
2021/05/28 09:57:48;;;;;;;2.65;1.27;;;20.70;99.90;;;23.49;54.29;95432.00;2403243;56;27159;-62
2021/05/28 10:00:36;;;;;;;2.53;1.40;;;20.50;99.90;;;22.90;53.25;95438.00;2185552;56;26746;-62
2021/05/28 10:03:26;;;;;;;2.20;1.40;;;18.90;99.90;;;20.78;58.94;95442.00;2403956;56;26646;-62
2021/05/28 10:06:13;;;;;;;1.42;1.30;;;18.40;99.90;;;20.91;49.66;95428.00;2284290;56;26813;-62
2021/05/28 10:09:03;;;;;;;1.58;1.20;;;18.00;99.90;;;19.41;63.51;95431.00;2404337;56;26681;-62
2021/05/28 10:11:52;;;;;;;4.45;1.60;;;19.40;99.90;;;22.40;55.72;95425.00;2185966;56;26777;-62
2021/05/28 10:14:39;;;;;;;2.45;1.50;;;20.30;99.90;;;22.58;45.15;95414.00;2263637;56;26682;-62
2021/05/28 10:17:25;;;;;;;1.30;1.20;;;21.80;99.90;;;23.94;47.22;95416.00;2322329;56;27143;-62
2021/05/28 10:20:12;;;;;;;1.95;1.30;;;20.10;99.90;;;22.24;53.21;95413.00;2260451;56;27104;-62
2021/05/28 10:22:59;;;;;;;2.58;1.20;;;21.30;99.90;;;24.19;42.16;95413.00;2221413;56;26684;-62
2021/05/28 10:25:46;;;;;;;4.10;1.35;;;21.60;99.90;;;24.00;41.14;95409.00;2405401;56;26776;-62
2021/05/28 10:28:36;;;;;;;1.37;1.00;;;21.60;99.90;;;24.50;48.13;95415.00;2292136;56;26910;-62
2021/05/28 10:31:56;;;;;;;1.58;1.10;;;21.70;99.90;;;24.43;49.42;95419.00;2185676;56;27776;-62
2021/05/28 10:35:09;;;;;;;1.42;1.20;;;21.50;99.90;;;24.14;53.45;95413.00;2187697;56;26798;-63
2021/05/28 10:37:55;;;;;;;1.52;1.12;;;19.80;99.90;;;21.35;54.13;95408.00;2188624;56;26796;-62
2021/05/28 10:40:42;;;;;;;1.50;1.33;;;18.40;99.90;;;19.68;61.89;95408.00;2405689;56;26450;-62
2021/05/28 10:43:30;;;;;;;3.87;1.50;;;17.70;99.90;;;18.99;74.67;95412.00;2187023;56;26877;-62
2021/05/28 10:46:17;;;;;;;1.98;1.30;;;17.50;99.90;;;18.74;84.20;95415.00;2187334;56;26791;-62
2021/05/28 10:49:14;;;;;;;1.45;1.30;;;17.00;99.90;;;18.10;82.60;95408.00;2335788;56;27167;-62
2021/05/28 10:52:07;;;;;;;1.92;1.27;;;16.80;99.90;;;18.16;79.28;95410.00;2188255;56;27243;-62
2021/05/28 10:55:01;;;;;;;2.28;1.62;;;18.00;99.90;;;19.78;64.50;95391.00;2187775;56;26740;-62
2021/05/28 10:57:53;;;;;;;3.20;1.70;;;19.40;99.90;;;21.53;69.62;95392.00;2233381;56;26679;-62
2021/05/28 11:00:41;;;;;;;2.00;1.30;;;20.70;99.90;;;22.93;60.11;95392.00;2254311;56;26793;-62
2021/05/28 11:03:47;;;;;;;1.95;1.05;;;21.30;99.90;;;23.69;55.67;95391.00;2188257;56;26669;-62
2021/05/28 11:07:14;;;;;;;1.17;0.95;;;21.20;99.90;;;23.94;53.42;95386.00;2407447;56;26703;-62
2021/05/28 11:10:15;;;;;;;2.22;1.10;;;21.50;99.90;;;24.20;42.63;95385.00;2248961;56;26988;-63
2021/05/28 11:13:16;;;;;;;1.70;1.37;;;22.80;99.90;;;24.98;44.32;95377.00;2188047;56;26865;-63
2021/05/28 11:16:03;;;;;;;2.47;1.27;;;23.20;99.90;;;25.05;47.69;95372.00;2186531;56;26827;-63
2021/05/28 11:18:50;;;;;;;1.67;1.30;;;22.40;99.90;;;24.54;48.39;95381.00;2242504;56;26814;-63
2021/05/28 11:21:41;;;;;;;3.12;1.30;;;21.30;99.90;;;23.21;49.95;95379.00;2406360;56;27203;-63
2021/05/28 11:24:54;;;;;;;4.30;1.33;;;21.60;99.90;;;23.86;52.28;95374.00;2239375;56;27132;-62
2021/05/28 11:28:07;;;;;;;1.25;1.15;;;21.50;99.90;;;23.91;54.24;95371.00;2188127;56;27001;-63
2021/05/28 11:30:59;;;;;;;2.65;1.10;;;21.70;99.90;;;23.86;45.05;95371.00;2406236;56;27317;-64
2021/05/28 11:33:45;;;;;;;2.55;1.30;;;23.10;99.90;;;26.90;39.79;95359.00;2187132;56;26874;-63
2021/05/28 11:36:42;;;;;;;2.75;1.40;;;22.20;99.90;;;23.82;43.06;95362.00;2233191;56;26626;-63
2021/05/28 11:39:33;;;;;;;1.30;1.20;;;22.20;99.90;;;24.14;51.93;95364.00;2186723;56;26793;-63
2021/05/28 11:42:22;;;;;;;2.60;1.48;;;22.20;99.90;;;24.57;45.98;95356.00;2313498;56;26915;-63
2021/05/28 11:45:11;;;;;;;1.80;1.30;;;21.60;99.90;;;23.29;53.58;95363.00;2187346;56;27629;-63
2021/05/28 11:47:58;;;;;;;1.55;1.30;;;20.10;99.90;;;21.59;57.70;95369.00;2307859;56;27264;-63
2021/05/28 11:50:50;;;;;;;1.30;1.10;;;19.40;99.90;;;20.83;55.75;95358.00;2186426;56;26877;-63